createdAt,value
2018-12-29T00:54:22.734Z,99.90
2018-12-29T00:57:03.650Z,99.30
2018-12-29T00:59:45.097Z,99.20
2018-12-29T01:02:26.339Z,99.20
2018-12-29T01:05:07.314Z,99.20
2018-12-29T01:07:48.946Z,99.20
2018-12-29T01:10:29.556Z,99.20
2018-12-29T01:13:11.016Z,99.20
2018-12-29T02:00:32.759Z,99.20
2018-12-29T02:03:14.274Z,99.00
2018-12-29T02:05:55.364Z,99.00
2018-12-29T02:08:36.047Z,98.90
2018-12-29T02:11:17.215Z,98.90
2018-12-29T02:13:58.344Z,98.90
2018-12-29T02:16:38.932Z,98.90
2018-12-29T02:19:19.430Z,98.90
2018-12-29T02:22:00.131Z,98.90
2018-12-29T02:24:41.573Z,98.90
2018-12-29T02:27:22.447Z,98.90
2018-12-29T02:30:02.248Z,98.90
2018-12-29T02:32:43.755Z,98.90
2018-12-29T02:35:25.524Z,98.80
2018-12-29T02:38:06.640Z,98.80
2018-12-29T02:40:48.096Z,98.90
2018-12-29T02:43:29.519Z,98.90
2018-12-29T02:46:10.196Z,98.90
2018-12-29T02:48:51.634Z,98.80
2018-12-29T02:51:20.986Z,98.90
2018-12-29T02:54:09.408Z,98.90
2018-12-29T02:56:50.193Z,98.90
2018-12-29T02:59:30.865Z,98.80
2018-12-29T03:02:12.101Z,99.10
2018-12-29T03:04:52.928Z,98.80
2018-12-29T03:07:33.892Z,98.90
2018-12-29T03:10:14.505Z,98.70
2018-12-29T03:12:56.161Z,98.80
2018-12-29T03:15:25.604Z,98.90
2018-12-29T03:18:14.197Z,98.90
2018-12-29T03:20:55.055Z,98.80
2018-12-29T03:23:36.193Z,98.80
2018-12-29T03:26:17.513Z,98.80
2018-12-29T03:28:58.547Z,98.80
2018-12-29T03:31:39.499Z,98.80
2018-12-29T06:14:39.544Z,98.80
2018-12-29T06:17:19.401Z,98.20
2018-12-29T06:20:00.423Z,98.30
2018-12-29T06:22:41.484Z,98.10
2018-12-29T06:25:22.110Z,98.20
2018-12-29T06:28:02.808Z,98.20
2018-12-29T06:30:44.144Z,98.30
2018-12-29T06:33:25.453Z,98.30
2018-12-29T06:36:06.689Z,98.30
2018-12-29T06:38:47.703Z,98.40
2018-12-29T06:41:28.961Z,98.30
2018-12-29T06:44:10.325Z,98.40
2018-12-29T06:46:50.951Z,98.40
2018-12-29T06:49:32.452Z,98.40
2018-12-29T06:52:13.723Z,98.30
2018-12-29T06:54:55.127Z,98.40
2018-12-29T06:57:36.009Z,98.40
2018-12-29T07:00:16.695Z,98.40
2018-12-29T07:02:57.354Z,98.40
2018-12-29T07:05:38.502Z,98.50
2018-12-29T07:08:19.197Z,98.50
2018-12-29T07:10:59.878Z,98.50
2018-12-29T07:13:41.441Z,98.50
2018-12-29T07:16:22.912Z,98.50
2018-12-29T07:19:04.164Z,98.50
2018-12-29T07:21:44.149Z,98.40
2018-12-29T08:46:24.904Z,98.40
2018-12-29T08:49:05.977Z,99.20
2018-12-29T08:51:46.010Z,99.20
2018-12-29T08:54:34.426Z,99.20
2018-12-29T08:57:15.916Z,99.20
2018-12-29T08:59:56.769Z,99.10
2018-12-29T09:02:26.173Z,99.10
2018-12-29T09:05:14.632Z,99.00
2018-12-29T09:07:56.241Z,98.90
2018-12-29T09:10:37.132Z,99.00
2018-12-29T09:16:00.075Z,98.90
2018-12-29T09:18:49.840Z,98.90
2018-12-29T09:21:31.532Z,98.80
2018-12-29T09:24:12.623Z,98.70
2018-12-29T09:26:52.079Z,98.60
2018-12-29T09:29:33.093Z,98.70
2018-12-29T09:32:14.273Z,98.60
2018-12-29T09:34:55.305Z,98.70
2018-12-29T09:37:36.811Z,98.70
2018-12-29T09:40:17.992Z,98.80
2018-12-29T09:42:57.559Z,98.80
2018-12-29T09:45:38.100Z,98.80
2018-12-29T09:48:18.924Z,99.00
2018-12-29T09:50:59.911Z,99.00
2018-12-29T09:53:40.749Z,99.00
2018-12-29T09:56:21.872Z,99.00
2018-12-29T09:59:01.625Z,99.00
2018-12-29T10:07:39.690Z,99.00
2018-12-29T10:10:20.549Z,99.20
2018-12-29T10:13:01.693Z,99.30
2018-12-29T10:15:42.534Z,99.20
2018-12-29T10:18:23.968Z,99.10
2018-12-29T10:21:05.469Z,98.90
2018-12-29T10:23:46.638Z,98.80
2018-12-29T10:26:27.216Z,98.60
2018-12-29T10:29:07.780Z,98.50
2018-12-29T10:31:49.185Z,98.60
2018-12-29T10:34:30.569Z,98.60
2018-12-29T10:37:11.787Z,98.70
2018-12-29T10:39:52.523Z,98.80
2018-12-29T10:42:33.970Z,98.90
2018-12-29T10:45:15.427Z,98.80
2018-12-29T10:47:44.876Z,98.90
2018-12-29T10:50:33.289Z,98.80
2018-12-29T10:53:14.226Z,98.80
2018-12-29T10:55:55.640Z,98.80
2018-12-29T10:58:37.161Z,98.80
2018-12-29T11:01:17.739Z,98.90
2018-12-29T11:03:58.402Z,98.90
2018-12-29T11:06:39.408Z,99.10
2018-12-29T11:09:20.097Z,99.00
2018-12-29T11:12:00.647Z,99.30
2018-12-29T11:14:41.697Z,99.20
2018-12-29T11:17:22.963Z,99.10
2018-12-29T11:20:03.539Z,99.00
2018-12-29T11:22:44.973Z,99.00
2018-12-29T11:25:26.468Z,99.00
2018-12-29T11:28:07.912Z,99.00
2018-12-29T11:30:49.422Z,99.10
2018-12-29T11:33:30.031Z,99.10
2018-12-29T11:36:10.648Z,99.00
2018-12-29T11:38:51.404Z,99.00
2018-12-29T11:41:32.897Z,99.10
2018-12-29T11:44:13.468Z,99.10
2018-12-29T11:46:54.297Z,99.10
2018-12-29T11:49:35.776Z,99.10
2018-12-29T11:52:16.450Z,99.10
2018-12-29T11:54:57.172Z,99.00
2018-12-29T11:57:38.600Z,99.00
2018-12-29T12:00:20.047Z,99.00
2018-12-29T12:03:01.538Z,99.10
2018-12-29T12:05:43.036Z,99.20
2018-12-29T12:08:24.624Z,99.20
2018-12-29T12:11:05.648Z,99.40
2018-12-29T12:13:46.342Z,99.50
2018-12-29T12:16:27.978Z,99.50
2018-12-29T12:19:09.213Z,99.50
2018-12-29T12:21:50.629Z,99.40
2018-12-29T12:24:31.370Z,99.30
2018-12-29T12:27:12.909Z,99.20
2018-12-29T13:11:46.153Z,99.10
2018-12-29T14:11:08.356Z,99.90
2018-12-29T14:13:49.812Z,99.80
2018-12-29T14:16:31.346Z,99.90
2018-12-29T14:19:12.313Z,99.70
2018-12-29T14:21:53.604Z,99.70
2018-12-29T14:24:35.172Z,99.50
2018-12-29T14:27:15.797Z,99.50
2018-12-29T14:29:55.698Z,99.50
2018-12-29T14:32:35.448Z,99.50
2018-12-29T14:35:23.970Z,99.50
2018-12-29T14:38:04.488Z,99.60
2018-12-29T14:40:43.933Z,99.60
2018-12-29T14:43:25.003Z,99.60
2018-12-29T14:46:06.733Z,99.60
2018-12-29T14:48:47.449Z,99.70
2018-12-29T14:51:26.912Z,99.70
2018-12-29T14:54:07.825Z,99.80
2018-12-29T14:56:49.395Z,99.80
2018-12-29T14:59:30.749Z,99.70
2018-12-29T15:02:00.168Z,99.70
2018-12-29T15:04:48.667Z,99.70
2018-12-29T15:07:31.588Z,99.80
2018-12-29T15:10:01.072Z,99.80
2018-12-29T15:12:49.531Z,99.90
2018-12-29T15:15:30.285Z,99.90
2018-12-29T15:18:11.684Z,99.90
2018-12-29T15:20:53.142Z,99.90
2018-12-29T15:23:34.344Z,99.90
2018-12-29T15:26:15.807Z,99.90
2018-12-29T15:28:45.357Z,99.90
2018-12-29T15:31:26.043Z,99.80
2018-12-29T15:34:07.323Z,99.90
2018-12-29T15:36:49.054Z,99.80
2018-12-29T15:39:30.451Z,99.80
2018-12-29T15:42:11.799Z,99.80
2018-12-29T15:44:53.191Z,99.90
2018-12-29T15:47:34.691Z,99.90
2018-12-29T15:50:15.794Z,99.90
2018-12-29T15:52:57.228Z,99.90
2018-12-29T15:55:38.162Z,99.90
2018-12-29T15:58:19.715Z,99.90
2018-12-29T16:01:01.802Z,99.90
2018-12-29T16:03:42.911Z,99.90
2018-12-29T16:06:24.080Z,99.90
2018-12-29T16:09:04.985Z,99.90
2018-12-29T16:11:46.812Z,99.90
2018-12-29T16:14:35.256Z,99.90
2018-12-29T16:17:11.259Z,99.90
2018-12-29T16:19:52.469Z,99.90
2018-12-29T16:22:34.043Z,99.90
2018-12-29T16:25:14.902Z,99.90
2018-12-29T16:27:55.694Z,99.90
2018-12-29T16:30:36.627Z,99.90
2018-12-29T16:33:18.059Z,99.90
2018-12-29T16:35:59.495Z,99.90
2018-12-29T16:38:40.896Z,99.90
2018-12-29T16:41:21.662Z,99.90
2018-12-29T16:44:02.842Z,99.90
2018-12-29T16:46:43.650Z,99.90
2018-12-29T16:49:24.684Z,99.90
2018-12-29T16:52:05.960Z,99.90
2018-12-29T16:54:46.683Z,99.90
2018-12-29T16:57:27.775Z,99.90
2018-12-29T17:00:08.449Z,99.90
2018-12-29T17:02:49.842Z,99.90
2018-12-29T17:05:31.362Z,99.90
2018-12-29T17:08:12.980Z,99.90
2018-12-29T17:10:54.555Z,99.90
2018-12-29T17:13:36.038Z,99.90
2018-12-29T17:16:17.489Z,99.90
2018-12-29T17:18:58.492Z,99.90
2018-12-29T17:21:39.935Z,99.90
2018-12-29T17:24:21.362Z,99.90
2018-12-29T17:27:02.897Z,99.90
2018-12-29T17:29:42.404Z,99.90
2018-12-29T17:32:30.888Z,99.90
2018-12-29T17:35:12.154Z,99.90
2018-12-29T17:37:53.551Z,99.90
2018-12-29T17:40:34.262Z,99.90
2018-12-29T17:43:14.906Z,99.90
2018-12-29T17:45:56.337Z,99.90
2018-12-29T17:48:37.125Z,99.90
2018-12-29T17:51:18.558Z,99.90
2018-12-29T17:54:00.023Z,99.90
2018-12-29T17:56:41.654Z,99.90
2018-12-29T17:59:23.401Z,99.90
2018-12-29T18:02:04.442Z,99.90
2018-12-29T18:04:45.790Z,99.90
2018-12-29T18:07:27.263Z,99.90
2018-12-29T18:10:08.641Z,99.90
2018-12-29T18:12:49.881Z,99.90
2018-12-29T18:15:29.917Z,99.90
2018-12-29T18:18:10.694Z,99.90
2018-12-29T18:20:52.481Z,99.90
2018-12-29T18:23:32.006Z,99.90
2018-12-29T18:26:20.488Z,99.90
2018-12-29T18:29:01.447Z,99.90
2018-12-29T18:31:42.201Z,99.90
2018-12-29T18:34:23.308Z,99.90
2018-12-29T18:37:03.991Z,99.90
2018-12-29T18:39:45.602Z,99.90
2018-12-29T18:42:27.102Z,99.90
2018-12-29T18:45:08.121Z,99.90
2018-12-29T18:47:47.629Z,99.90
2018-12-29T18:50:29.001Z,99.90
2018-12-29T18:53:09.718Z,99.90
2018-12-29T18:55:51.281Z,99.90
2018-12-29T18:58:32.489Z,99.90
2018-12-29T19:01:14.326Z,99.90
2018-12-29T19:03:55.470Z,99.90
2018-12-29T19:06:36.735Z,99.90
2018-12-29T19:09:18.125Z,99.90
2018-12-29T19:11:59.157Z,99.90
2018-12-29T19:14:40.875Z,99.90
2018-12-29T19:17:20.629Z,99.90
2018-12-29T19:23:09.581Z,99.90
2018-12-29T19:25:51.036Z,99.90
2018-12-29T19:28:32.049Z,99.90
2018-12-29T19:31:12.993Z,99.90
2018-12-29T19:33:54.310Z,99.80
2018-12-29T19:36:33.895Z,99.80
2018-12-29T19:39:15.522Z,99.80
2018-12-29T19:41:56.578Z,99.80
2018-12-29T19:44:37.886Z,99.70
2018-12-29T19:47:19.501Z,99.70
2018-12-29T19:50:00.954Z,99.70
2018-12-29T19:52:30.419Z,99.70
2018-12-29T19:55:18.943Z,99.70
2018-12-29T19:57:59.656Z,99.50
2018-12-29T20:00:41.065Z,99.50
2018-12-29T20:03:22.409Z,99.30
2018-12-29T20:06:10.978Z,99.20
2018-12-29T20:08:46.470Z,99.30
2018-12-29T20:11:28.213Z,99.40
2018-12-29T20:14:09.517Z,99.50
2018-12-29T20:16:50.970Z,99.50
2018-12-29T20:19:31.877Z,99.30
2018-12-29T20:22:13.204Z,99.30
2018-12-29T20:24:54.626Z,99.60
2018-12-29T20:27:36.170Z,99.40
2018-12-29T20:30:17.700Z,99.30
2018-12-29T20:32:59.287Z,99.90
2018-12-29T20:41:06.001Z,99.90
2018-12-29T20:43:56.222Z,99.70
2018-12-29T20:46:44.691Z,99.70
2018-12-29T20:49:26.075Z,99.70
2018-12-29T20:52:07.047Z,99.70
2018-12-29T20:54:47.801Z,99.70
2018-12-29T20:57:30.866Z,99.70
2018-12-29T21:00:11.582Z,99.70
2018-12-29T21:02:51.145Z,99.70
2018-12-29T21:05:39.762Z,99.70
2018-12-29T21:08:20.560Z,99.80
2018-12-29T21:11:02.335Z,99.80
2018-12-29T21:13:43.710Z,99.80
2018-12-29T21:16:23.303Z,99.80
2018-12-29T21:19:04.540Z,99.80
2018-12-29T21:21:45.961Z,99.80
2018-12-29T21:24:27.306Z,99.90
2018-12-29T21:27:08.807Z,99.80
2018-12-29T21:29:49.951Z,99.90
2018-12-29T21:32:31.491Z,99.90
2018-12-29T21:35:12.422Z,99.80
2018-12-29T21:37:53.224Z,99.80
2018-12-29T21:40:34.441Z,99.80
2018-12-29T21:43:15.736Z,99.90
2018-12-29T21:45:57.404Z,99.90
2018-12-29T21:48:37.549Z,99.90
2018-12-29T21:51:18.334Z,99.90
2018-12-29T21:53:59.279Z,99.90
2018-12-29T21:56:40.286Z,99.90
2018-12-29T21:59:21.627Z,99.90
2018-12-29T22:02:02.440Z,99.90
2018-12-29T22:04:31.884Z,99.90
2018-12-29T22:07:20.399Z,99.90
2018-12-29T22:10:01.555Z,99.90
2018-12-29T22:12:43.002Z,99.90
2018-12-29T22:15:23.830Z,99.90
2018-12-29T22:18:05.170Z,99.90
2018-12-29T22:20:46.587Z,99.90
2018-12-29T22:23:27.945Z,99.90
2018-12-29T22:26:09.317Z,99.90
2018-12-29T22:28:50.376Z,99.90
2018-12-29T22:31:31.054Z,99.90
2018-12-29T22:34:12.575Z,99.90
2018-12-29T22:36:52.049Z,99.90
2018-12-29T22:39:33.545Z,99.90
2018-12-29T22:42:15.013Z,99.90
2018-12-29T22:44:56.217Z,99.90
2018-12-29T22:47:37.512Z,99.90
2018-12-29T22:50:18.991Z,99.90
2018-12-29T22:53:00.520Z,99.90
2018-12-29T22:55:41.547Z,99.90
2018-12-29T22:58:22.298Z,99.90
2018-12-29T23:01:03.517Z,99.90
2018-12-29T23:03:44.837Z,99.90
2018-12-29T23:06:26.325Z,99.90
2018-12-29T23:09:07.024Z,99.90
2018-12-29T23:11:48.360Z,99.90
2018-12-29T23:14:29.986Z,99.90
2018-12-29T23:17:11.872Z,99.90
2018-12-29T23:19:52.761Z,99.80
2018-12-29T23:22:34.295Z,99.80
2018-12-29T23:25:15.648Z,99.80
2018-12-29T23:27:56.867Z,99.80
2018-12-29T23:30:38.199Z,99.70
2018-12-29T23:33:19.467Z,99.70
2018-12-29T23:36:00.291Z,99.80
2018-12-29T23:38:41.760Z,99.70
2018-12-29T23:41:22.974Z,99.70
2018-12-29T23:44:02.753Z,99.80
2018-12-29T23:46:51.320Z,99.80
2018-12-29T23:49:34.262Z,99.80
2018-12-29T23:52:15.436Z,99.90
2018-12-29T23:54:56.545Z,99.90
2018-12-29T23:57:38.177Z,99.90
